| time (UTC) | temp F | wind direction | speed MPH | gust MPH | rain 1hr in | rain 24hr in | rain mn in | humidity % | barometer mb |
| 20260504174152 | 76 | 11 | 1.0 | 4.0 | 0.00 | 0.00 | 0.00 | 37 | 1017.1 |
| 20260504173651 | 76 | 297 | 1.0 | 4.0 | 0.00 | 0.00 | 0.00 | 36 | 1017.1 |
| 20260504172651 | 77 | 290 | 1.0 | 2.0 | 0.00 | 0.00 | 0.00 | 37 | 1017.1 |
| 20260504172151 | 77 | 72 | 0.0 | 2.0 | 0.00 | 0.00 | 0.00 | 39 | 1017.2 |
| 20260504171651 | 77 | 95 | 0.0 | 2.0 | 0.00 | 0.00 | 0.00 | 37 | 1017.3 |
| 20260504171151 | 77 | 208 | 0.0 | 3.0 | 0.00 | 0.00 | 0.00 | 36 | 1017.4 |
| 20260504170651 | 76 | 63 | 2.0 | 3.0 | 0.00 | 0.00 | 0.00 | 36 | 1017.5 |
| 20260504170151 | 76 | 96 | 0.0 | 3.0 | 0.00 | 0.00 | 0.00 | 39 | 1017.5 |
| 20260504160151 | 71 | 301 | 0.0 | 3.0 | 0.00 | 0.00 | 0.00 | 43 | 1017.9 |
| 20260504151150 | 70 | 70 | 1.0 | 2.0 | 0.00 | 0.00 | 0.00 | 48 | 1018.5 |
| 20260504150150 | 70 | 86 | 0.0 | 1.0 | 0.00 | 0.00 | 0.00 | 46 | 1018.5 |
| 20260504141149 | 64 | 100 | 0.0 | 0.0 | 0.00 | 0.00 | 0.00 | 72 | 1018.7 |
| 20260504140649 | 64 | 101 | 0.0 | 0.0 | 0.00 | 0.00 | 0.00 | 70 | 1018.6 |
| 20260504140149 | 63 | 114 | 0.0 | 0.0 | 0.00 | 0.00 | 0.00 | 73 | 1018.5 |
| 20260504130648 | 55 | 8 | 0.0 | 0.0 | 0.00 | 0.00 | 0.00 | 92 | 1018.4 |
| 20260504130148 | 54 | 8 | 0.0 | 0.0 | 0.00 | 0.00 | 0.00 | 93 | 1018.4 |
| 20260504120148 | 47 | 8 | 0.0 | 0.0 | 0.00 | 0.00 | 0.00 | 93 | 1018.2 |
| 20260504110147 | 45 | 8 | 0.0 | 0.0 | 0.00 | 0.00 | 0.00 | 92 | 1018.0 |
| 20260504100147 | 45 | 8 | 0.0 | 0.0 | 0.00 | 0.00 | 0.00 | 92 | 1017.9 |
| 20260504081646 | 47 | 8 | 0.0 | 0.0 | 0.00 | 0.00 | 0.00 | 91 | 1018.0 |
| 20260504081146 | 47 | 9 | 0.0 | 0.0 | 0.00 | 0.00 | 0.00 | 91 | 1018.1 |
| 20260504080646 | 47 | 9 | 0.0 | 0.0 | 0.00 | 0.00 | 0.00 | 91 | 1018.1 |
| 20260504080145 | 47 | 8 | 0.0 | 0.0 | 0.00 | 0.00 | 0.00 | 91 | 1018.2 |
| 20260504070145 | 48 | 8 | 0.0 | 0.0 | 0.00 | 0.00 | 0.00 | 91 | 1018.3 |
| 20260504060145 | 49 | 343 | 0.0 | 0.0 | 0.00 | 0.00 | 0.00 | 90 | 1018.9 |
| 20260504050644 | 51 | 342 | 0.0 | 0.0 | 0.00 | 0.00 | 0.00 | 89 | 1019.0 |
| 20260504050214 | 51 | 342 | 0.0 | 0.0 | 0.00 | 0.00 | 0.00 | 89 | 1019.1 |
| 20260504045644 | 51 | 342 | 0.0 | 0.0 | 0.00 | 0.00 | 0.00 | 89 | 1019.0 |
| 20260504044644 | 51 | 342 | 0.0 | 0.0 | 0.00 | 0.00 | 0.00 | 88 | 1019.0 |
| 20260504044144 | 51 | 342 | 0.0 | 0.0 | 0.00 | 0.00 | 0.00 | 88 | 1019.0 |
| 20260504043144 | 51 | 342 | 0.0 | 0.0 | 0.00 | 0.00 | 0.00 | 87 | 1018.9 |
| 20260504042144 | 52 | 342 | 0.0 | 0.0 | 0.00 | 0.00 | 0.00 | 86 | 1019.0 |
| 20260504041643 | 52 | 342 | 0.0 | 0.0 | 0.00 | 0.00 | 0.00 | 86 | 1018.9 |
| 20260504041143 | 52 | 342 | 0.0 | 0.0 | 0.00 | 0.00 | 0.00 | 84 | 1019.0 |
| 20260504040143 | 52 | 342 | 0.0 | 0.0 | 0.00 | 0.00 | 0.00 | 83 | 1018.9 |
| 20260504035643 | 52 | 342 | 0.0 | 0.0 | 0.00 | 0.00 | 0.00 | 82 | 1018.8 |
| 20260504035143 | 52 | 342 | 0.0 | 0.0 | 0.00 | 0.00 | 0.00 | 82 | 1018.7 |
| 20260504034643 | 52 | 342 | 0.0 | 0.0 | 0.00 | 0.00 | 0.00 | 80 | 1018.6 |
| 20260504034143 | 52 | 342 | 0.0 | 0.0 | 0.00 | 0.00 | 0.00 | 80 | 1018.6 |
| 20260504033643 | 52 | 342 | 0.0 | 0.0 | 0.00 | 0.00 | 0.00 | 81 | 1018.6 |
| 20260504033143 | 53 | 342 | 0.0 | 0.0 | 0.00 | 0.00 | 0.00 | 81 | 1018.8 |
| 20260504032643 | 53 | 342 | 0.0 | 0.0 | 0.00 | 0.00 | 0.00 | 81 | 1018.9 |
| 20260504032143 | 53 | 342 | 0.0 | 0.0 | 0.00 | 0.00 | 0.00 | 80 | 1018.9 |
| 20260504031643 | 53 | 342 | 0.0 | 0.0 | 0.00 | 0.00 | 0.00 | 80 | 1018.8 |
| 20260504031143 | 53 | 342 | 0.0 | 0.0 | 0.00 | 0.00 | 0.00 | 80 | 1018.9 |
| 20260504030643 | 54 | 342 | 0.0 | 0.0 | 0.00 | 0.00 | 0.00 | 80 | 1018.8 |
| 20260504030142 | 54 | 342 | 0.0 | 0.0 | 0.00 | 0.00 | 0.00 | 79 | 1018.8 |
| 20260504025643 | 54 | 342 | 0.0 | 0.0 | 0.00 | 0.00 | 0.00 | 80 | 1018.7 |
| 20260504025143 | 55 | 342 | 0.0 | 0.0 | 0.00 | 0.00 | 0.00 | 80 | 1018.8 |
| 20260504024643 | 55 | 342 | 0.0 | 0.0 | 0.00 | 0.00 | 0.00 | 79 | 1018.7 |
| 20260504024143 | 55 | 342 | 0.0 | 0.0 | 0.00 | 0.00 | 0.00 | 78 | 1018.7 |
| 20260504023643 | 55 | 342 | 0.0 | 0.0 | 0.00 | 0.00 | 0.00 | 76 | 1018.7 |
| 20260504023143 | 56 | 342 | 0.0 | 0.0 | 0.00 | 0.00 | 0.00 | 75 | 1018.8 |
| 20260504022642 | 56 | 342 | 0.0 | 0.0 | 0.00 | 0.00 | 0.00 | 74 | 1018.7 |
| 20260504022142 | 56 | 342 | 0.0 | 0.0 | 0.00 | 0.00 | 0.00 | 74 | 1018.7 |
| 20260504021642 | 57 | 342 | 0.0 | 0.0 | 0.00 | 0.00 | 0.00 | 72 | 1018.7 |
| 20260504021142 | 57 | 342 | 0.0 | 0.0 | 0.00 | 0.00 | 0.00 | 71 | 1018.6 |
| 20260504020642 | 57 | 342 | 0.0 | 0.0 | 0.00 | 0.00 | 0.00 | 73 | 1018.5 |
| 20260504020142 | 58 | 342 | 0.0 | 0.0 | 0.00 | 0.00 | 0.00 | 70 | 1018.3 |
| 20260504015642 | 58 | 342 | 0.0 | 0.0 | 0.00 | 0.00 | 0.00 | 71 | 1018.3 |
| 20260504015142 | 58 | 342 | 0.0 | 0.0 | 0.00 | 0.00 | 0.00 | 71 | 1018.2 |
| 20260504014642 | 58 | 342 | 0.0 | 0.0 | 0.00 | 0.00 | 0.00 | 72 | 1018.1 |
| 20260504013642 | 59 | 342 | 0.0 | 0.0 | 0.00 | 0.00 | 0.00 | 71 | 1018.1 |
| 20260504013142 | 59 | 342 | 0.0 | 0.0 | 0.00 | 0.00 | 0.00 | 71 | 1018.0 |
| 20260504012642 | 59 | 344 | 0.0 | 0.0 | 0.00 | 0.00 | 0.00 | 69 | 1017.9 |
| 20260504011641 | 60 | 345 | 0.0 | 0.0 | 0.00 | 0.00 | 0.00 | 67 | 1017.6 |
| 20260504011141 | 60 | 345 | 0.0 | 0.0 | 0.00 | 0.00 | 0.00 | 68 | 1017.6 |
| 20260504010711 | 60 | 345 | 0.0 | 0.0 | 0.00 | 0.00 | 0.00 | 67 | 1017.5 |
| 20260504005641 | 61 | 345 | 0.0 | 0.0 | 0.00 | 0.00 | 0.00 | 64 | 1017.3 |
| 20260504005141 | 61 | 345 | 0.0 | 0.0 | 0.00 | 0.00 | 0.00 | 60 | 1017.3 |
| 20260504004711 | 62 | 345 | 0.0 | 0.0 | 0.00 | 0.00 | 0.00 | 59 | 1017.1 |
| 20260504004211 | 62 | 345 | 0.0 | 0.0 | 0.00 | 0.00 | 0.00 | 58 | 1017.1 |
| 20260504003711 | 63 | 345 | 0.0 | 0.0 | 0.00 | 0.00 | 0.00 | 56 | 1017.1 |
| 20260504003141 | 63 | 345 | 0.0 | 0.0 | 0.00 | 0.00 | 0.00 | 56 | 1017.1 |
| 20260504002641 | 64 | 345 | 0.0 | 0.0 | 0.00 | 0.00 | 0.00 | 54 | 1017.0 |
| 20260504002141 | 65 | 345 | 0.0 | 0.0 | 0.00 | 0.00 | 0.00 | 54 | 1017.1 |
| 20260504001710 | 65 | 344 | 0.0 | 0.0 | 0.00 | 0.00 | 0.00 | 54 | 1017.0 |
| 20260504001210 | 66 | 345 | 0.0 | 0.0 | 0.00 | 0.00 | 0.00 | 52 | 1017.1 |
| 20260504000641 | 67 | 345 | 0.0 | 0.0 | 0.00 | 0.00 | 0.00 | 51 | 1017.1 |
| 20260504000141 | 67 | 345 | 0.0 | 0.0 | 0.00 | 0.00 | 0.00 | 50 | 1017.1 |
| 20260503235640 | 68 | 345 | 0.0 | 0.0 | 0.00 | 0.00 | 0.00 | 50 | 1017.0 |
| 20260503234640 | 69 | 345 | 0.0 | 1.0 | 0.00 | 0.00 | 0.00 | 46 | 1017.0 |
| 20260503234140 | 69 | 345 | 0.0 | 0.0 | 0.00 | 0.00 | 0.00 | 44 | 1016.9 |
| 20260503233710 | 70 | 345 | 0.0 | 0.0 | 0.00 | 0.00 | 0.00 | 43 | 1016.9 |
| 20260503233210 | 70 | 345 | 0.0 | 2.0 | 0.00 | 0.00 | 0.00 | 41 | 1017.0 |
| 20260503232640 | 71 | 345 | 0.0 | 3.0 | 0.00 | 0.00 | 0.00 | 41 | 1016.9 |
| 20260503232210 | 71 | 301 | 0.0 | 3.0 | 0.00 | 0.00 | 0.00 | 35 | 1017.1 |
| 20260503231139 | 72 | 319 | 0.0 | 3.0 | 0.00 | 0.00 | 0.00 | 34 | 1017.2 |
| 20260503230639 | 72 | 321 | 1.0 | 3.0 | 0.00 | 0.00 | 0.00 | 34 | 1017.2 |
| 20260503230210 | 72 | 302 | 1.0 | 4.0 | 0.00 | 0.00 | 0.00 | 35 | 1017.2 |
| 20260503225639 | 72 | 331 | 1.0 | 4.0 | 0.00 | 0.00 | 0.00 | 34 | 1017.2 |
| 20260503224139 | 72 | 304 | 0.0 | 4.0 | 0.00 | 0.00 | 0.00 | 33 | 1017.1 |
| 20260503223709 | 72 | 333 | 2.0 | 5.0 | 0.00 | 0.00 | 0.00 | 36 | 1017.1 |
| 20260503223209 | 72 | 317 | 2.0 | 5.0 | 0.00 | 0.00 | 0.00 | 31 | 1017.0 |
| 20260503222639 | 72 | 316 | 1.0 | 5.0 | 0.00 | 0.00 | 0.00 | 34 | 1017.0 |
| 20260503221709 | 72 | 339 | 1.0 | 3.0 | 0.00 | 0.00 | 0.00 | 35 | 1016.9 |
| 20260503221209 | 73 | 306 | 2.0 | 4.0 | 0.00 | 0.00 | 0.00 | 36 | 1016.9 |
| 20260503220709 | 73 | 28 | 0.0 | 4.0 | 0.00 | 0.00 | 0.00 | 34 | 1017.0 |
| 20260503220209 | 73 | 314 | 3.0 | 4.0 | 0.00 | 0.00 | 0.00 | 33 | 1016.9 |
| 20260503215639 | 73 | 315 | 1.0 | 4.0 | 0.00 | 0.00 | 0.00 | 33 | 1016.9 |
| 20260503215209 | 72 | 321 | 1.0 | 4.0 | 0.00 | 0.00 | 0.00 | 34 | 1016.9 |
| 20260503214709 | 72 | 354 | 0.0 | 4.0 | 0.00 | 0.00 | 0.00 | 34 | 1017.0 |
| 20260503213208 | 72 | 303 | 3.0 | 5.0 | 0.00 | 0.00 | 0.00 | 33 | 1017.3 |
| 20260503212708 | 72 | 353 | 1.0 | 6.0 | 0.00 | 0.00 | 0.00 | 33 | 1017.2 |
| 20260503212208 | 73 | 316 | 5.0 | 6.0 | 0.00 | 0.00 | 0.00 | 34 | 1017.2 |
| 20260503211208 | 73 | 329 | 3.0 | 4.0 | 0.00 | 0.00 | 0.00 | 32 | 1017.4 |
| 20260503210708 | 73 | 260 | 0.0 | 5.0 | 0.00 | 0.00 | 0.00 | 34 | 1017.4 |
| 20260503210208 | 73 | 310 | 2.0 | 5.0 | 0.00 | 0.00 | 0.00 | 33 | 1017.4 |
| 20260503205708 | 74 | 29 | 1.0 | 7.0 | 0.00 | 0.00 | 0.00 | 33 | 1017.5 |
| 20260503205208 | 73 | 329 | 1.0 | 7.0 | 0.00 | 0.00 | 0.00 | 33 | 1017.6 |
| 20260503203708 | 73 | 314 | 2.0 | 5.0 | 0.00 | 0.00 | 0.00 | 33 | 1017.9 |
| 20260503203207 | 73 | 318 | 3.0 | 6.0 | 0.00 | 0.00 | 0.00 | 31 | 1018.0 |
| 20260503202707 | 73 | 295 | 2.0 | 6.0 | 0.00 | 0.00 | 0.00 | 33 | 1018.2 |
| 20260503202207 | 73 | 304 | 3.0 | 4.0 | 0.00 | 0.00 | 0.00 | 37 | 1018.1 |
| 20260503201707 | 72 | 323 | 1.0 | 4.0 | 0.00 | 0.00 | 0.00 | 31 | 1018.3 |
| 20260503201207 | 72 | 328 | 2.0 | 5.0 | 0.00 | 0.00 | 0.00 | 33 | 1018.4 |
| 20260503200707 | 72 | 310 | 2.0 | 5.0 | 0.00 | 0.00 | 0.00 | 35 | 1018.5 |
| 20260503200207 | 72 | 338 | 2.0 | 6.0 | 0.00 | 0.00 | 0.00 | 33 | 1018.5 |
| 20260503195707 | 72 | 313 | 4.0 | 7.0 | 0.00 | 0.00 | 0.00 | 31 | 1018.5 |
| 20260503195207 | 73 | 313 | 4.0 | 7.0 | 0.00 | 0.00 | 0.00 | 35 | 1018.7 |
| 20260503194707 | 72 | 332 | 3.0 | 7.0 | 0.00 | 0.00 | 0.00 | 35 | 1018.6 |
| 20260503193707 | 73 | 315 | 3.0 | 11.0 | 0.00 | 0.00 | 0.00 | 33 | 1018.8 |
| 20260503193207 | 73 | 319 | 4.0 | 11.0 | 0.00 | 0.00 | 0.00 | 35 | 1018.8 |
| 20260503192707 | 73 | 290 | 3.0 | 7.0 | 0.00 | 0.00 | 0.00 | 34 | 1018.8 |
| 20260503192207 | 73 | 306 | 2.0 | 5.0 | 0.00 | 0.00 | 0.00 | 36 | 1018.9 |
| 20260503191207 | 73 | 272 | 0.0 | 4.0 | 0.00 | 0.00 | 0.00 | 34 | 1019.0 |
| 20260503190706 | 72 | 337 | 0.0 | 6.0 | 0.00 | 0.00 | 0.00 | 34 | 1018.9 |
| 20260503185706 | 72 | 310 | 2.0 | 7.0 | 0.00 | 0.00 | 0.00 | 32 | 1019.1 |
| 20260503185206 | 72 | 312 | 2.0 | 7.0 | 0.00 | 0.00 | 0.00 | 31 | 1019.1 |
| 20260503184706 | 73 | 308 | 2.0 | 6.0 | 0.00 | 0.00 | 0.00 | 35 | 1019.2 |
| 20260503183706 | 72 | 359 | 2.0 | 7.0 | 0.00 | 0.00 | 0.00 | 36 | 1019.3 |
| 20260503183206 | 72 | 312 | 4.0 | 7.0 | 0.00 | 0.00 | 0.00 | 34 | 1019.3 |
| 20260503182706 | 72 | 331 | 2.0 | 8.0 | 0.00 | 0.00 | 0.00 | 35 | 1019.3 |
| 20260503182206 | 71 | 311 | 1.0 | 8.0 | 0.00 | 0.00 | 0.00 | 35 | 1019.4 |
| 20260503181706 | 72 | 334 | 3.0 | 7.0 | 0.00 | 0.00 | 0.00 | 35 | 1019.4 |
| 20260503181206 | 72 | 309 | 4.0 | 7.0 | 0.00 | 0.00 | 0.00 | 35 | 1019.5 |
| 20260503180706 | 72 | 300 | 3.0 | 6.0 | 0.00 | 0.00 | 0.00 | 36 | 1019.5 |
| 20260503180205 | 72 | 339 | 2.0 | 6.0 | 0.00 | 0.00 | 0.00 | 36 | 1019.6 |
| 20260503175705 | 71 | 15 | 2.0 | 6.0 | 0.00 | 0.00 | 0.00 | 36 | 1019.7 |
| 20260503175205 | 71 | 321 | 0.0 | 5.0 | 0.00 | 0.00 | 0.00 | 38 | 1019.8 |
| 20260503174705 | 71 | 323 | 5.0 | 5.0 | 0.00 | 0.00 | 0.00 | 41 | 1019.9 |